createdAt,value
2019-04-30T00:02:05.762Z,10.15
2019-04-30T00:04:40.553Z,10.20
2019-04-30T00:07:10.396Z,10.20
2019-04-30T00:09:41.537Z,10.11
2019-04-30T00:12:10.830Z,10.14
2019-04-30T00:14:41.331Z,10.17
2019-04-30T00:17:15.041Z,10.26
2019-04-30T00:19:41.596Z,10.17
2019-04-30T00:22:10.693Z,10.11
2019-04-30T00:24:46.855Z,10.04
2019-04-30T00:27:12.128Z,9.96
2019-04-30T00:29:41.332Z,9.95
2019-04-30T00:32:10.473Z,10.03
2019-04-30T00:34:39.580Z,10.03
2019-04-30T00:37:13.862Z,10.12
2019-04-30T00:39:44.292Z,10.05
2019-04-30T00:42:12.231Z,10.17
2019-04-30T00:44:41.366Z,10.02
2019-04-30T00:47:10.589Z,9.92
2019-04-30T00:49:39.738Z,9.90
2019-04-30T00:52:09.045Z,9.88
2019-04-30T00:54:38.264Z,9.88
2019-04-30T00:57:07.780Z,9.99
2019-04-30T00:59:39.694Z,10.00
2019-04-30T01:02:28.898Z,9.93
2019-04-30T01:05:00.188Z,9.89
2019-04-30T01:07:27.360Z,9.89
2019-04-30T01:09:56.758Z,9.88
2019-04-30T01:12:31.021Z,9.96
2019-04-30T01:14:57.050Z,10.18
2019-04-30T01:17:26.178Z,10.18
2019-04-30T01:19:55.456Z,10.08
2019-04-30T01:22:28.215Z,10.04
2019-04-30T01:24:56.314Z,10.02
2019-04-30T01:27:25.509Z,10.00
2019-04-30T01:29:54.833Z,10.20
2019-04-30T01:32:23.947Z,10.20
2019-04-30T01:34:54.011Z,10.13
2019-04-30T01:37:28.366Z,10.06
2019-04-30T01:39:54.056Z,9.99
2019-04-30T01:42:23.590Z,10.09
2019-04-30T01:44:54.005Z,10.06
2019-04-30T01:47:27.702Z,9.92
2019-04-30T01:49:55.857Z,9.88
2019-04-30T01:52:31.045Z,9.84
2019-04-30T01:54:58.663Z,9.84
2019-04-30T01:57:35.830Z,9.88
2019-04-30T02:00:30.741Z,10.11
2019-04-30T02:03:00.265Z,10.11
2019-04-30T02:05:29.368Z,10.07
2019-04-30T02:07:58.636Z,10.05
2019-04-30T02:10:28.550Z,10.00
2019-04-30T02:12:59.077Z,10.02
2019-04-30T02:15:29.181Z,10.01
2019-04-30T02:17:58.911Z,10.05
2019-04-30T02:20:28.835Z,10.12
2019-04-30T02:22:58.651Z,10.13
2019-04-30T02:25:29.548Z,10.13
2019-04-30T02:27:59.266Z,10.13
2019-04-30T02:30:30.931Z,10.17
2019-04-30T02:33:00.626Z,10.21
2019-04-30T02:35:54.891Z,10.17
2019-04-30T02:38:30.043Z,10.17
2019-04-30T02:40:59.908Z,10.19
2019-04-30T02:43:30.353Z,10.18
2019-04-30T02:46:00.525Z,10.15
2019-04-30T02:48:30.809Z,10.16
2019-04-30T02:51:01.723Z,10.20
2019-04-30T02:54:24.074Z,10.20
2019-04-30T02:56:59.750Z,10.19
2019-04-30T02:59:30.031Z,10.29
2019-04-30T03:01:59.902Z,10.42
2019-04-30T03:04:29.527Z,10.33
2019-04-30T03:06:59.724Z,10.24
2019-04-30T03:09:29.665Z,10.22
2019-04-30T03:12:00.269Z,10.17
2019-04-30T03:14:30.149Z,10.15
2019-04-30T03:17:21.151Z,10.14
2019-04-30T03:20:03.123Z,10.15
2019-04-30T03:22:30.229Z,10.16
2019-04-30T03:24:59.765Z,10.13
2019-04-30T03:27:30.161Z,10.18
2019-04-30T03:30:00.276Z,10.16
2019-04-30T03:32:35.790Z,10.15
2019-04-30T03:35:03.245Z,10.17
2019-04-30T03:37:31.416Z,10.15
2019-04-30T03:40:00.800Z,10.15
2019-04-30T03:42:29.959Z,10.15
2019-04-30T03:44:59.346Z,10.14
2019-04-30T03:47:30.056Z,10.17
2019-04-30T03:50:00.119Z,10.19
2019-04-30T03:52:29.550Z,10.24
2019-04-30T03:54:59.652Z,10.21
2019-04-30T03:57:30.416Z,10.20
2019-04-30T03:59:59.640Z,10.21
2019-04-30T04:02:45.664Z,10.19
2019-04-30T04:05:26.941Z,10.19
2019-04-30T04:08:01.385Z,10.15
2019-04-30T04:10:44.477Z,10.11
2019-04-30T04:13:13.566Z,10.15
2019-04-30T04:15:42.642Z,10.14
2019-04-30T04:18:11.718Z,10.13
2019-04-30T04:20:42.842Z,10.05
2019-04-30T04:23:12.223Z,10.17
2019-04-30T04:25:41.390Z,10.19
2019-04-30T04:28:10.725Z,10.18
2019-04-30T04:30:42.839Z,10.21
2019-04-30T04:33:11.107Z,10.21
2019-04-30T04:35:40.425Z,10.23
2019-04-30T04:38:12.241Z,10.24
2019-04-30T04:40:40.486Z,10.27
2019-04-30T04:43:10.513Z,10.30
2019-04-30T04:45:43.479Z,10.28
2019-04-30T04:48:11.112Z,10.27
2019-04-30T04:50:40.330Z,10.29
2019-04-30T04:53:11.534Z,10.29
2019-04-30T04:55:40.773Z,10.31
2019-04-30T04:58:12.957Z,10.31
2019-04-30T05:00:41.106Z,10.31
2019-04-30T05:03:20.151Z,10.31
2019-04-30T05:05:50.006Z,10.30
2019-04-30T05:08:19.671Z,10.34
2019-04-30T05:10:49.502Z,10.32
2019-04-30T05:13:19.297Z,10.35
2019-04-30T05:15:49.238Z,10.35
2019-04-30T05:18:19.294Z,10.31
2019-04-30T05:20:49.064Z,10.33
2019-04-30T05:23:21.863Z,10.34
2019-04-30T05:25:52.924Z,10.34
2019-04-30T05:28:22.037Z,10.39
2019-04-30T05:30:51.110Z,10.40
2019-04-30T05:33:20.848Z,10.39
2019-04-30T05:35:49.927Z,10.42
2019-04-30T05:38:19.065Z,10.39
2019-04-30T05:40:49.529Z,10.45
2019-04-30T05:43:19.272Z,10.42
2019-04-30T05:45:49.232Z,10.44
2019-04-30T05:48:18.968Z,10.45
2019-04-30T05:50:49.368Z,10.50
2019-04-30T05:53:19.175Z,10.50
2019-04-30T05:55:49.393Z,10.48
2019-04-30T05:58:19.729Z,10.50
2019-04-30T06:00:49.913Z,10.55
2019-04-30T06:03:27.633Z,10.55
2019-04-30T06:05:50.103Z,10.59
2019-04-30T06:08:21.010Z,10.60
2019-04-30T06:11:09.367Z,10.56
2019-04-30T06:14:16.241Z,10.59
2019-04-30T06:17:03.752Z,10.64
2019-04-30T06:19:32.833Z,10.59
2019-04-30T06:22:07.533Z,10.63
2019-04-30T06:24:32.735Z,10.68
2019-04-30T06:27:01.870Z,10.65
2019-04-30T06:29:31.329Z,10.64
2019-04-30T06:32:00.499Z,10.66
2019-04-30T06:34:29.990Z,10.62
2019-04-30T06:36:59.736Z,10.65
2019-04-30T06:39:28.990Z,10.67
2019-04-30T06:42:04.942Z,10.73
2019-04-30T06:44:37.499Z,10.80
2019-04-30T06:47:01.879Z,10.76
2019-04-30T06:49:30.976Z,10.75
2019-04-30T06:52:00.070Z,10.76
2019-04-30T06:54:29.178Z,10.82
2019-04-30T06:56:59.642Z,10.91
2019-04-30T06:59:29.942Z,10.66
2019-04-30T07:01:59.112Z,10.72
2019-04-30T07:04:29.959Z,10.75
2019-04-30T07:06:59.361Z,10.83
2019-04-30T07:09:55.577Z,10.86
2019-04-30T07:12:42.803Z,10.90
2019-04-30T07:15:13.663Z,10.93
2019-04-30T07:17:42.891Z,10.93
2019-04-30T07:20:12.005Z,10.97
2019-04-30T07:22:49.677Z,11.03
2019-04-30T07:25:12.440Z,11.08
2019-04-30T07:27:43.780Z,11.11
2019-04-30T07:30:13.246Z,11.15
2019-04-30T07:32:42.396Z,11.11
2019-04-30T07:35:11.558Z,11.18
2019-04-30T07:37:40.673Z,11.17
2019-04-30T07:40:09.955Z,11.27
2019-04-30T07:42:44.666Z,11.31
2019-04-30T07:45:10.157Z,11.33
2019-04-30T07:47:39.751Z,11.41
2019-04-30T07:50:10.599Z,11.40
2019-04-30T07:52:58.116Z,11.38
2019-04-30T07:55:10.967Z,11.38
2019-04-30T07:57:40.605Z,11.55
2019-04-30T08:00:10.384Z,11.48
2019-04-30T08:02:45.209Z,11.46
2019-04-30T08:05:20.325Z,11.48
2019-04-30T08:07:49.950Z,11.44
2019-04-30T08:10:19.130Z,11.46
2019-04-30T08:12:50.392Z,11.43
2019-04-30T08:15:19.901Z,11.43
2019-04-30T08:18:02.203Z,11.50
2019-04-30T08:20:19.917Z,11.46
2019-04-30T08:22:49.431Z,11.41
2019-04-30T08:25:19.830Z,11.39
2019-04-30T08:27:49.463Z,11.37
2019-04-30T08:30:26.104Z,11.35
2019-04-30T08:32:50.206Z,11.41
2019-04-30T08:35:19.809Z,11.44
2019-04-30T08:37:49.814Z,11.46
2019-04-30T08:40:19.253Z,11.49
2019-04-30T08:42:49.500Z,11.50
2019-04-30T08:45:19.645Z,11.55
2019-04-30T08:47:49.491Z,11.60
2019-04-30T08:50:19.909Z,11.72
2019-04-30T08:52:50.159Z,11.72
2019-04-30T08:55:22.385Z,11.77
2019-04-30T08:57:50.427Z,11.77
2019-04-30T09:00:19.710Z,11.65
2019-04-30T09:02:49.304Z,11.73
2019-04-30T09:05:43.561Z,11.80
2019-04-30T09:08:13.661Z,11.80
2019-04-30T09:10:42.731Z,11.70
2019-04-30T09:13:11.999Z,11.79
2019-04-30T09:15:41.126Z,11.84
2019-04-30T09:18:12.570Z,11.81
2019-04-30T09:20:42.054Z,11.94
2019-04-30T09:23:13.180Z,11.89
2019-04-30T09:25:42.552Z,11.93
2019-04-30T09:28:11.762Z,11.94
2019-04-30T09:30:40.917Z,12.16
2019-04-30T09:33:11.179Z,12.07
2019-04-30T09:35:40.565Z,12.15
2019-04-30T09:38:09.615Z,12.21
2019-04-30T09:40:41.562Z,12.33
2019-04-30T09:43:09.967Z,12.43
2019-04-30T09:45:39.084Z,12.49
2019-04-30T09:48:09.419Z,12.58
2019-04-30T09:50:39.402Z,12.70
2019-04-30T09:53:09.895Z,12.89
2019-04-30T09:55:40.547Z,12.93
2019-04-30T09:58:17.165Z,13.03
2019-04-30T10:00:40.683Z,13.07
2019-04-30T10:03:10.765Z,13.18
2019-04-30T10:05:40.276Z,13.39
2019-04-30T10:08:09.820Z,13.52
2019-04-30T10:10:52.686Z,13.67
2019-04-30T10:13:21.911Z,13.77
2019-04-30T10:15:59.199Z,14.02
2019-04-30T10:18:28.396Z,14.33
2019-04-30T10:20:58.894Z,14.66
2019-04-30T10:23:30.354Z,14.81
2019-04-30T10:25:59.831Z,14.92
2019-04-30T10:28:29.277Z,14.97
2019-04-30T10:30:58.341Z,14.96
2019-04-30T10:33:28.704Z,14.98
2019-04-30T10:35:59.486Z,15.14
2019-04-30T10:38:29.411Z,15.39
2019-04-30T10:40:58.764Z,15.47
2019-04-30T10:43:31.923Z,15.37
2019-04-30T10:46:00.513Z,15.39
2019-04-30T10:48:29.651Z,15.68
2019-04-30T10:50:59.325Z,15.93
2019-04-30T10:53:28.694Z,16.21
2019-04-30T10:55:59.460Z,16.45
2019-04-30T10:58:28.770Z,16.35
2019-04-30T11:01:01.670Z,16.51
2019-04-30T11:03:29.226Z,16.33
2019-04-30T11:05:58.639Z,16.00
2019-04-30T11:08:27.816Z,15.64
2019-04-30T11:10:57.090Z,15.85
2019-04-30T11:13:26.267Z,16.25
2019-04-30T11:15:55.442Z,16.53
2019-04-30T11:18:24.755Z,16.65
2019-04-30T11:20:54.103Z,16.81
2019-04-30T11:23:24.116Z,16.58
2019-04-30T11:25:53.722Z,16.70
2019-04-30T11:28:24.018Z,16.75
2019-04-30T11:30:58.823Z,16.52
2019-04-30T11:33:28.627Z,16.32
2019-04-30T11:36:03.089Z,16.19
2019-04-30T11:38:29.923Z,16.20
2019-04-30T11:40:59.300Z,16.39
2019-04-30T11:43:29.457Z,16.78
2019-04-30T11:46:36.320Z,16.78
2019-04-30T11:49:05.944Z,17.03
2019-04-30T11:51:34.950Z,16.98
2019-04-30T11:54:04.051Z,17.25
2019-04-30T11:56:33.305Z,17.16
2019-04-30T11:59:02.472Z,17.32
2019-04-30T12:01:32.082Z,17.12
2019-04-30T12:04:01.207Z,17.38
2019-04-30T12:06:30.336Z,17.62
2019-04-30T12:09:10.150Z,17.89
2019-04-30T12:11:39.378Z,18.00
2019-04-30T12:14:08.772Z,18.10
2019-04-30T12:16:39.555Z,17.87
2019-04-30T12:19:09.185Z,17.72
2019-04-30T12:21:38.227Z,17.66
2019-04-30T12:24:07.713Z,17.59
2019-04-30T12:26:38.817Z,17.25
2019-04-30T12:29:08.976Z,17.44
2019-04-30T12:31:39.056Z,17.77
2019-04-30T12:34:08.215Z,18.08
2019-04-30T12:36:38.796Z,18.29
2019-04-30T12:39:08.176Z,17.99
2019-04-30T12:41:40.386Z,18.25
2019-04-30T12:44:08.809Z,18.56
2019-04-30T12:46:38.764Z,18.63
2019-04-30T12:49:12.168Z,18.79
2019-04-30T12:51:59.284Z,18.82
2019-04-30T12:54:48.673Z,18.69
2019-04-30T12:57:29.488Z,18.34
2019-04-30T13:00:00.473Z,17.97
2019-04-30T13:02:29.940Z,18.03
2019-04-30T13:05:00.478Z,18.11
2019-04-30T13:07:30.903Z,18.37
2019-04-30T13:10:01.759Z,18.52
2019-04-30T13:12:31.789Z,18.53
2019-04-30T13:15:01.327Z,18.72
2019-04-30T13:17:30.567Z,18.76
2019-04-30T13:19:59.740Z,18.97
2019-04-30T13:22:29.065Z,18.77
2019-04-30T13:24:59.680Z,18.84
2019-04-30T13:27:31.126Z,18.86
2019-04-30T13:30:11.942Z,18.88
2019-04-30T13:32:49.339Z,18.78
2019-04-30T13:35:19.146Z,18.82
2019-04-30T13:37:56.465Z,18.72
2019-04-30T13:40:44.576Z,18.87
2019-04-30T13:43:14.094Z,18.96
2019-04-30T13:45:43.417Z,18.84
2019-04-30T13:48:12.876Z,18.94
2019-04-30T13:50:42.031Z,18.91
2019-04-30T13:53:11.206Z,18.94
2019-04-30T13:55:45.687Z,19.05
2019-04-30T13:58:11.379Z,19.14
2019-04-30T14:00:40.649Z,19.06
2019-04-30T14:03:21.257Z,19.02
2019-04-30T14:05:51.555Z,19.06
2019-04-30T14:08:28.843Z,19.00
2019-04-30T14:10:59.206Z,18.89
2019-04-30T14:13:28.442Z,18.74
2019-04-30T14:15:57.617Z,18.71
2019-04-30T14:18:30.868Z,18.86
2019-04-30T14:21:00.792Z,18.98
2019-04-30T14:23:28.902Z,18.92
2019-04-30T14:26:00.933Z,18.85
2019-04-30T14:28:29.263Z,18.98
2019-04-30T14:30:58.527Z,19.03
2019-04-30T14:33:29.366Z,19.14
2019-04-30T14:36:00.557Z,19.13
2019-04-30T14:38:29.335Z,19.09
2019-04-30T14:41:00.656Z,18.95
2019-04-30T14:43:42.794Z,18.92
2019-04-30T14:46:32.765Z,18.55
2019-04-30T14:49:22.389Z,18.63
2019-04-30T14:51:52.260Z,18.57
2019-04-30T14:54:32.270Z,18.59
2019-04-30T14:57:07.583Z,18.62
2019-04-30T14:59:50.961Z,18.65
2019-04-30T15:02:42.017Z,18.76
2019-04-30T15:05:11.782Z,18.78
2019-04-30T15:07:41.225Z,18.66
2019-04-30T15:10:10.511Z,18.67
2019-04-30T15:12:39.610Z,18.72
2019-04-30T15:15:09.225Z,18.73
2019-04-30T15:17:41.107Z,18.78
2019-04-30T15:20:10.982Z,18.89
2019-04-30T15:22:43.308Z,18.82
2019-04-30T15:25:12.507Z,18.83
2019-04-30T15:27:45.164Z,18.58
2019-04-30T15:30:21.684Z,18.65
2019-04-30T15:32:45.935Z,18.56
2019-04-30T15:35:14.992Z,18.51
2019-04-30T15:37:45.966Z,18.48
2019-04-30T15:40:15.810Z,18.49
2019-04-30T15:42:46.558Z,18.43
2019-04-30T15:45:19.059Z,18.44
2019-04-30T15:47:48.669Z,18.41
2019-04-30T15:50:19.550Z,18.31
2019-04-30T15:52:48.857Z,18.25
2019-04-30T15:55:18.962Z,18.29
2019-04-30T15:58:07.105Z,18.33
2019-04-30T16:00:36.724Z,18.42
2019-04-30T16:03:11.856Z,18.28
2019-04-30T16:05:43.560Z,18.17
2019-04-30T16:08:26.428Z,18.01
2019-04-30T16:11:14.717Z,18.11
2019-04-30T16:14:18.578Z,18.11
2019-04-30T16:17:04.853Z,18.10
2019-04-30T16:19:33.991Z,18.15
2019-04-30T16:22:03.052Z,18.07
2019-04-30T16:24:32.165Z,18.08
2019-04-30T16:27:01.238Z,18.01
2019-04-30T16:29:30.766Z,17.91
2019-04-30T16:31:59.867Z,17.90
2019-04-30T16:34:30.399Z,17.89
2019-04-30T16:36:59.690Z,17.85
2019-04-30T16:39:28.930Z,17.85
2019-04-30T16:41:59.180Z,17.88
2019-04-30T16:44:28.322Z,17.82
2019-04-30T16:46:59.514Z,17.73
2019-04-30T16:49:28.990Z,17.71
2019-04-30T16:52:01.573Z,17.95
2019-04-30T16:54:30.716Z,17.95
2019-04-30T16:57:04.091Z,18.08
2019-04-30T16:59:38.803Z,17.88
2019-04-30T17:02:09.324Z,17.71
2019-04-30T17:05:03.521Z,17.59
2019-04-30T17:07:52.273Z,17.54
2019-04-30T17:10:35.346Z,17.52
2019-04-30T17:13:18.884Z,17.47
2019-04-30T17:15:48.708Z,17.41
2019-04-30T17:18:19.053Z,17.30
2019-04-30T17:20:49.164Z,17.24
2019-04-30T17:23:19.309Z,17.35
2019-04-30T17:25:48.517Z,17.62
2019-04-30T17:28:18.799Z,17.55
2019-04-30T17:30:49.180Z,17.39
2019-04-30T17:33:18.501Z,17.28
2019-04-30T17:35:49.748Z,17.35
2019-04-30T17:38:19.125Z,17.23
2019-04-30T17:40:49.680Z,17.12
2019-04-30T17:43:18.901Z,17.09
2019-04-30T17:45:49.344Z,17.04
2019-04-30T17:48:18.869Z,17.03
2019-04-30T17:50:49.759Z,17.01
2019-04-30T17:53:19.110Z,16.92
2019-04-30T17:55:49.064Z,16.83
2019-04-30T17:58:20.618Z,16.75
2019-04-30T18:00:53.170Z,16.74
2019-04-30T18:03:22.379Z,16.64
2019-04-30T18:05:51.447Z,16.53
2019-04-30T18:08:21.242Z,16.41
2019-04-30T18:10:50.612Z,16.31
2019-04-30T18:13:19.979Z,16.22
2019-04-30T18:15:49.138Z,16.12
2019-04-30T18:18:46.515Z,15.98
2019-04-30T18:21:29.302Z,15.85
2019-04-30T18:24:16.178Z,15.77
2019-04-30T18:26:50.220Z,15.62
2019-04-30T18:29:19.512Z,15.50
2019-04-30T18:31:48.802Z,15.39
2019-04-30T18:34:19.449Z,15.19
2019-04-30T18:36:51.208Z,15.01
2019-04-30T18:39:19.699Z,14.82
2019-04-30T18:41:49.094Z,14.66
2019-04-30T18:44:19.556Z,14.54
2019-04-30T18:46:49.184Z,14.37
2019-04-30T18:49:18.732Z,14.26
2019-04-30T18:51:49.242Z,14.12
2019-04-30T18:54:20.928Z,14.02
2019-04-30T18:56:49.891Z,13.90
2019-04-30T18:59:19.624Z,13.81
2019-04-30T19:01:48.812Z,13.76
2019-04-30T19:04:18.898Z,13.57
2019-04-30T19:06:48.971Z,13.54
2019-04-30T19:09:30.036Z,13.32
2019-04-30T19:12:29.142Z,13.19
2019-04-30T19:15:11.265Z,13.05
2019-04-30T19:18:02.516Z,13.01
2019-04-30T19:20:44.426Z,12.88
2019-04-30T19:23:13.805Z,12.82
2019-04-30T19:25:43.091Z,12.67
2019-04-30T19:28:14.567Z,12.49
2019-04-30T19:30:55.059Z,12.26
2019-04-30T19:33:14.407Z,12.21
2019-04-30T19:35:43.909Z,12.22
2019-04-30T19:38:14.019Z,12.00
2019-04-30T19:40:43.190Z,11.94
2019-04-30T19:43:12.706Z,11.86
2019-04-30T19:45:42.103Z,11.83
2019-04-30T19:48:11.745Z,11.78
2019-04-30T19:50:41.380Z,11.72
2019-04-30T19:53:11.277Z,11.72
2019-04-30T19:55:41.073Z,11.69
2019-04-30T19:58:14.485Z,11.63
2019-04-30T20:06:39.560Z,11.61
2019-04-30T20:09:09.200Z,11.62
2019-04-30T20:11:42.536Z,11.48
2019-04-30T20:14:11.831Z,11.50
2019-04-30T20:16:41.029Z,11.41
2019-04-30T20:19:10.216Z,11.32
2019-04-30T20:21:50.414Z,11.33
2019-04-30T20:24:10.655Z,11.49
2019-04-30T20:26:39.916Z,11.27
2019-04-30T20:29:09.406Z,11.13
2019-04-30T20:31:38.743Z,11.05
2019-04-30T20:34:09.206Z,10.90
2019-04-30T20:36:38.948Z,10.83
2019-04-30T20:39:24.000Z,10.82
2019-04-30T20:41:54.074Z,10.71
2019-04-30T20:44:23.300Z,10.56
2019-04-30T20:46:53.117Z,10.54
2019-04-30T20:49:22.350Z,10.56
2019-04-30T20:51:55.180Z,10.45
2019-04-30T20:54:22.957Z,10.38
2019-04-30T20:56:52.423Z,10.26
2019-04-30T20:59:21.589Z,10.37
2019-04-30T21:01:51.181Z,10.26
2019-04-30T21:04:21.058Z,10.23
2019-04-30T21:06:50.450Z,10.19
2019-04-30T21:09:20.011Z,10.19
2019-04-30T21:11:49.423Z,10.15
2019-04-30T21:14:19.194Z,10.16
2019-04-30T21:16:48.695Z,10.13
2019-04-30T21:19:17.892Z,10.11
2019-04-30T21:21:47.207Z,10.08
2019-04-30T21:24:16.476Z,10.00
2019-04-30T21:26:45.922Z,9.92
2019-04-30T21:29:16.065Z,9.77
2019-04-30T21:32:10.306Z,9.74
2019-04-30T21:34:43.637Z,9.63
2019-04-30T21:37:12.931Z,9.60
2019-04-30T21:39:42.150Z,9.54
2019-04-30T21:42:11.320Z,9.40
2019-04-30T21:44:42.049Z,9.37
2019-04-30T21:47:11.566Z,9.27
2019-04-30T21:49:40.636Z,9.22
2019-04-30T21:52:09.942Z,9.23
2019-04-30T21:54:39.133Z,9.19
2019-04-30T21:57:08.286Z,9.26
2019-04-30T21:59:38.848Z,9.14
2019-04-30T22:02:08.353Z,9.12
2019-04-30T22:04:37.791Z,9.05
2019-04-30T22:07:09.289Z,9.00
2019-04-30T22:09:38.246Z,8.96
2019-04-30T22:12:09.197Z,8.87
2019-04-30T22:14:38.526Z,8.82
2019-04-30T22:17:09.319Z,8.90
2019-04-30T22:19:38.540Z,8.87
2019-04-30T22:22:09.399Z,8.86
2019-04-30T22:24:38.944Z,8.83
2019-04-30T22:27:08.059Z,8.80
2019-04-30T22:29:41.850Z,8.77
2019-04-30T22:32:09.339Z,8.63
2019-04-30T22:34:38.699Z,8.64
2019-04-30T22:37:08.570Z,8.57
2019-04-30T22:40:01.336Z,8.53
2019-04-30T22:42:32.693Z,8.54
2019-04-30T22:45:02.768Z,8.59
2019-04-30T22:47:32.166Z,8.58
2019-04-30T22:50:01.344Z,8.53
2019-04-30T22:52:30.616Z,8.55
2019-04-30T22:54:59.794Z,8.63
2019-04-30T22:57:29.110Z,8.53
2019-04-30T22:59:58.603Z,8.55
2019-04-30T23:02:50.251Z,8.49
2019-04-30T23:05:19.830Z,8.54
2019-04-30T23:07:49.268Z,8.52
2019-04-30T23:10:18.806Z,8.41
2019-04-30T23:12:50.212Z,8.45
2019-04-30T23:15:20.405Z,8.57
2019-04-30T23:17:49.758Z,8.36
2019-04-30T23:20:18.865Z,8.32
2019-04-30T23:22:48.032Z,8.29
2019-04-30T23:25:17.467Z,8.38
2019-04-30T23:27:46.531Z,8.44
2019-04-30T23:30:15.723Z,8.34
2019-04-30T23:32:44.987Z,8.30
2019-04-30T23:35:14.282Z,8.18
2019-04-30T23:37:43.773Z,7.98
2019-04-30T23:40:29.542Z,7.96
2019-04-30T23:42:58.912Z,8.13
2019-04-30T23:45:28.672Z,8.13
2019-04-30T23:47:58.013Z,8.06
2019-04-30T23:50:27.149Z,8.08
2019-04-30T23:52:56.332Z,7.98
2019-04-30T23:55:25.660Z,7.99
2019-04-30T23:57:54.786Z,8.08
